sensor_id;sensor_type;location;lat;lon;timestamp;P1;durP1;ratioP1;P2;durP2;ratioP2
45694;SDS011;31408;45.468;9.124;2023-12-20T00:02:07;40.25;;;20.83;;
45694;SDS011;31408;45.468;9.124;2023-12-20T00:04:33;34.67;;;19.67;;
45694;SDS011;31408;45.468;9.124;2023-12-20T00:06:58;35.20;;;19.63;;
45694;SDS011;31408;45.468;9.124;2023-12-20T00:09:23;35.03;;;17.58;;
45694;SDS011;31408;45.468;9.124;2023-12-20T00:11:49;36.80;;;20.05;;
45694;SDS011;31408;45.468;9.124;2023-12-20T00:14:14;35.33;;;20.08;;
45694;SDS011;31408;45.468;9.124;2023-12-20T00:16:39;34.05;;;18.15;;
45694;SDS011;31408;45.468;9.124;2023-12-20T00:19:05;36.55;;;19.70;;
45694;SDS011;31408;45.468;9.124;2023-12-20T00:21:30;34.42;;;18.27;;
45694;SDS011;31408;45.468;9.124;2023-12-20T00:23:55;33.88;;;19.10;;
45694;SDS011;31408;45.468;9.124;2023-12-20T00:26:21;31.33;;;19.58;;
45694;SDS011;31408;45.468;9.124;2023-12-20T00:28:46;36.67;;;21.45;;
45694;SDS011;31408;45.468;9.124;2023-12-20T00:31:11;32.20;;;19.25;;
45694;SDS011;31408;45.468;9.124;2023-12-20T00:33:37;34.72;;;17.67;;
45694;SDS011;31408;45.468;9.124;2023-12-20T00:36:02;33.25;;;18.52;;
45694;SDS011;31408;45.468;9.124;2023-12-20T00:38:27;36.60;;;19.13;;
45694;SDS011;31408;45.468;9.124;2023-12-20T00:40:53;35.83;;;20.48;;
45694;SDS011;31408;45.468;9.124;2023-12-20T00:43:18;39.72;;;20.52;;
45694;SDS011;31408;45.468;9.124;2023-12-20T00:45:43;36.47;;;19.33;;
45694;SDS011;31408;45.468;9.124;2023-12-20T00:48:09;38.05;;;21.30;;
45694;SDS011;31408;45.468;9.124;2023-12-20T00:50:34;36.78;;;20.85;;
45694;SDS011;31408;45.468;9.124;2023-12-20T00:52:59;36.22;;;20.35;;
45694;SDS011;31408;45.468;9.124;2023-12-20T00:55:25;36.55;;;21.02;;
45694;SDS011;31408;45.468;9.124;2023-12-20T00:57:50;41.00;;;20.27;;
45694;SDS011;31408;45.468;9.124;2023-12-20T01:00:15;34.67;;;20.38;;
45694;SDS011;31408;45.468;9.124;2023-12-20T01:02:41;33.53;;;18.15;;
45694;SDS011;31408;45.468;9.124;2023-12-20T01:05:06;36.05;;;20.80;;
45694;SDS011;31408;45.468;9.124;2023-12-20T01:07:32;34.83;;;18.92;;
45694;SDS011;31408;45.468;9.124;2023-12-20T01:09:58;34.42;;;18.55;;
45694;SDS011;31408;45.468;9.124;2023-12-20T01:12:23;36.63;;;20.80;;
45694;SDS011;31408;45.468;9.124;2023-12-20T01:14:48;33.10;;;21.25;;
45694;SDS011;31408;45.468;9.124;2023-12-20T01:17:14;38.50;;;20.92;;
45694;SDS011;31408;45.468;9.124;2023-12-20T01:19:39;33.28;;;19.30;;
45694;SDS011;31408;45.468;9.124;2023-12-20T01:22:07;36.17;;;19.27;;
45694;SDS011;31408;45.468;9.124;2023-12-20T01:24:32;32.95;;;16.75;;
45694;SDS011;31408;45.468;9.124;2023-12-20T01:26:57;37.10;;;18.08;;
45694;SDS011;31408;45.468;9.124;2023-12-20T01:29:23;32.97;;;18.23;;
45694;SDS011;31408;45.468;9.124;2023-12-20T01:31:48;32.97;;;18.88;;
45694;SDS011;31408;45.468;9.124;2023-12-20T01:34:13;34.75;;;18.58;;
45694;SDS011;31408;45.468;9.124;2023-12-20T01:36:39;32.53;;;19.08;;
45694;SDS011;31408;45.468;9.124;2023-12-20T01:39:04;34.47;;;17.45;;
45694;SDS011;31408;45.468;9.124;2023-12-20T01:41:29;27.98;;;16.13;;
45694;SDS011;31408;45.468;9.124;2023-12-20T01:43:55;32.35;;;19.45;;
45694;SDS011;31408;45.468;9.124;2023-12-20T01:46:20;33.17;;;19.50;;
45694;SDS011;31408;45.468;9.124;2023-12-20T01:48:46;32.90;;;17.13;;
45694;SDS011;31408;45.468;9.124;2023-12-20T01:51:12;39.38;;;20.65;;
45694;SDS011;31408;45.468;9.124;2023-12-20T01:53:38;36.55;;;20.20;;
45694;SDS011;31408;45.468;9.124;2023-12-20T01:56:05;32.03;;;18.95;;
45694;SDS011;31408;45.468;9.124;2023-12-20T01:58:30;47.47;;;19.90;;
45694;SDS011;31408;45.468;9.124;2023-12-20T02:00:56;37.05;;;19.90;;
45694;SDS011;31408;45.468;9.124;2023-12-20T02:03:21;32.67;;;18.95;;
45694;SDS011;31408;45.468;9.124;2023-12-20T02:05:47;41.72;;;22.13;;
45694;SDS011;31408;45.468;9.124;2023-12-20T02:08:13;38.00;;;17.35;;
45694;SDS011;31408;45.468;9.124;2023-12-20T02:10:38;39.10;;;19.55;;
45694;SDS011;31408;45.468;9.124;2023-12-20T02:13:05;37.55;;;19.60;;
45694;SDS011;31408;45.468;9.124;2023-12-20T02:15:30;33.78;;;18.02;;
45694;SDS011;31408;45.468;9.124;2023-12-20T02:17:56;36.58;;;20.92;;
45694;SDS011;31408;45.468;9.124;2023-12-20T02:20:21;33.97;;;19.05;;
45694;SDS011;31408;45.468;9.124;2023-12-20T02:22:47;36.42;;;20.67;;
45694;SDS011;31408;45.468;9.124;2023-12-20T02:25:12;33.58;;;19.50;;
45694;SDS011;31408;45.468;9.124;2023-12-20T02:27:37;37.30;;;20.45;;
45694;SDS011;31408;45.468;9.124;2023-12-20T02:30:03;32.97;;;19.00;;
45694;SDS011;31408;45.468;9.124;2023-12-20T02:32:29;35.15;;;20.42;;
45694;SDS011;31408;45.468;9.124;2023-12-20T02:34:54;35.42;;;18.98;;
45694;SDS011;31408;45.468;9.124;2023-12-20T02:37:20;31.27;;;18.05;;
45694;SDS011;31408;45.468;9.124;2023-12-20T02:39:45;38.38;;;21.13;;
45694;SDS011;31408;45.468;9.124;2023-12-20T02:42:10;36.28;;;20.08;;
45694;SDS011;31408;45.468;9.124;2023-12-20T02:44:36;29.55;;;16.92;;
45694;SDS011;31408;45.468;9.124;2023-12-20T02:47:01;35.17;;;18.45;;
45694;SDS011;31408;45.468;9.124;2023-12-20T02:49:27;33.80;;;18.30;;
45694;SDS011;31408;45.468;9.124;2023-12-20T02:51:52;32.40;;;18.23;;
45694;SDS011;31408;45.468;9.124;2023-12-20T02:54:17;38.22;;;18.38;;
45694;SDS011;31408;45.468;9.124;2023-12-20T02:56:43;34.25;;;19.10;;
45694;SDS011;31408;45.468;9.124;2023-12-20T02:59:08;34.58;;;20.42;;
45694;SDS011;31408;45.468;9.124;2023-12-20T03:01:34;34.20;;;20.85;;
45694;SDS011;31408;45.468;9.124;2023-12-20T03:04:00;38.25;;;18.73;;
45694;SDS011;31408;45.468;9.124;2023-12-20T03:06:25;30.85;;;17.80;;
45694;SDS011;31408;45.468;9.124;2023-12-20T03:08:51;35.22;;;20.38;;
45694;SDS011;31408;45.468;9.124;2023-12-20T03:11:16;33.75;;;18.98;;
45694;SDS011;31408;45.468;9.124;2023-12-20T03:13:41;39.63;;;18.92;;
45694;SDS011;31408;45.468;9.124;2023-12-20T03:16:10;34.80;;;19.33;;
45694;SDS011;31408;45.468;9.124;2023-12-20T03:18:36;37.00;;;19.70;;
45694;SDS011;31408;45.468;9.124;2023-12-20T03:21:01;32.35;;;19.65;;
45694;SDS011;31408;45.468;9.124;2023-12-20T03:23:27;30.50;;;17.42;;
45694;SDS011;31408;45.468;9.124;2023-12-20T03:25:52;39.83;;;20.13;;
45694;SDS011;31408;45.468;9.124;2023-12-20T03:28:18;36.78;;;19.50;;
45694;SDS011;31408;45.468;9.124;2023-12-20T03:30:43;34.22;;;19.13;;
45694;SDS011;31408;45.468;9.124;2023-12-20T03:33:09;29.90;;;17.33;;
45694;SDS011;31408;45.468;9.124;2023-12-20T03:35:34;38.20;;;19.50;;
45694;SDS011;31408;45.468;9.124;2023-12-20T03:37:59;32.65;;;20.50;;
45694;SDS011;31408;45.468;9.124;2023-12-20T03:40:25;38.15;;;19.75;;
45694;SDS011;31408;45.468;9.124;2023-12-20T03:42:51;35.42;;;18.20;;
45694;SDS011;31408;45.468;9.124;2023-12-20T03:45:16;40.30;;;20.65;;
45694;SDS011;31408;45.468;9.124;2023-12-20T03:47:41;32.50;;;18.95;;
45694;SDS011;31408;45.468;9.124;2023-12-20T03:50:07;35.33;;;19.13;;
45694;SDS011;31408;45.468;9.124;2023-12-20T03:52:32;35.38;;;18.55;;
45694;SDS011;31408;45.468;9.124;2023-12-20T03:54:57;32.85;;;18.58;;
45694;SDS011;31408;45.468;9.124;2023-12-20T03:57:23;36.22;;;19.52;;
45694;SDS011;31408;45.468;9.124;2023-12-20T03:59:48;39.25;;;19.83;;
45694;SDS011;31408;45.468;9.124;2023-12-20T04:02:14;32.25;;;17.83;;
45694;SDS011;31408;45.468;9.124;2023-12-20T04:04:39;32.67;;;19.00;;
45694;SDS011;31408;45.468;9.124;2023-12-20T04:07:04;37.00;;;19.90;;
45694;SDS011;31408;45.468;9.124;2023-12-20T04:09:30;37.15;;;20.00;;
45694;SDS011;31408;45.468;9.124;2023-12-20T04:11:55;36.03;;;18.92;;
45694;SDS011;31408;45.468;9.124;2023-12-20T04:14:20;37.17;;;18.20;;
45694;SDS011;31408;45.468;9.124;2023-12-20T04:16:46;32.97;;;18.10;;
45694;SDS011;31408;45.468;9.124;2023-12-20T04:19:11;30.60;;;17.50;;
45694;SDS011;31408;45.468;9.124;2023-12-20T04:21:37;39.17;;;18.17;;
45694;SDS011;31408;45.468;9.124;2023-12-20T04:24:02;30.83;;;19.10;;
45694;SDS011;31408;45.468;9.124;2023-12-20T04:26:27;32.25;;;18.55;;
45694;SDS011;31408;45.468;9.124;2023-12-20T04:28:53;32.35;;;18.92;;
45694;SDS011;31408;45.468;9.124;2023-12-20T04:31:18;32.40;;;18.10;;
45694;SDS011;31408;45.468;9.124;2023-12-20T04:33:43;32.65;;;18.50;;
45694;SDS011;31408;45.468;9.124;2023-12-20T04:36:09;37.08;;;19.88;;
45694;SDS011;31408;45.468;9.124;2023-12-20T04:38:34;31.80;;;19.23;;
45694;SDS011;31408;45.468;9.124;2023-12-20T04:40:59;30.95;;;18.27;;
45694;SDS011;31408;45.468;9.124;2023-12-20T04:43:25;32.53;;;17.02;;
45694;SDS011;31408;45.468;9.124;2023-12-20T04:45:50;35.25;;;18.23;;
45694;SDS011;31408;45.468;9.124;2023-12-20T04:48:15;34.20;;;17.92;;
45694;SDS011;31408;45.468;9.124;2023-12-20T04:50:41;32.97;;;19.95;;
45694;SDS011;31408;45.468;9.124;2023-12-20T04:53:07;41.75;;;20.27;;
45694;SDS011;31408;45.468;9.124;2023-12-20T04:55:32;36.38;;;18.38;;
45694;SDS011;31408;45.468;9.124;2023-12-20T04:57:57;29.25;;;16.27;;
45694;SDS011;31408;45.468;9.124;2023-12-20T05:00:23;34.53;;;18.02;;
45694;SDS011;31408;45.468;9.124;2023-12-20T05:02:48;30.45;;;18.13;;
45694;SDS011;31408;45.468;9.124;2023-12-20T05:05:13;31.00;;;17.25;;
45694;SDS011;31408;45.468;9.124;2023-12-20T05:07:40;32.00;;;18.40;;
45694;SDS011;31408;45.468;9.124;2023-12-20T05:10:06;33.00;;;19.25;;
45694;SDS011;31408;45.468;9.124;2023-12-20T05:12:33;34.05;;;17.52;;
45694;SDS011;31408;45.468;9.124;2023-12-20T05:14:58;34.55;;;18.67;;
45694;SDS011;31408;45.468;9.124;2023-12-20T05:17:24;34.33;;;19.50;;
45694;SDS011;31408;45.468;9.124;2023-12-20T05:19:49;31.70;;;18.45;;
45694;SDS011;31408;45.468;9.124;2023-12-20T05:22:15;33.75;;;17.67;;
45694;SDS011;31408;45.468;9.124;2023-12-20T05:24:40;34.97;;;18.40;;
45694;SDS011;31408;45.468;9.124;2023-12-20T05:27:05;34.40;;;18.50;;
45694;SDS011;31408;45.468;9.124;2023-12-20T05:29:31;31.77;;;19.20;;
45694;SDS011;31408;45.468;9.124;2023-12-20T05:31:57;36.03;;;18.73;;
45694;SDS011;31408;45.468;9.124;2023-12-20T05:34:23;32.58;;;16.95;;
45694;SDS011;31408;45.468;9.124;2023-12-20T05:36:48;32.03;;;17.98;;
45694;SDS011;31408;45.468;9.124;2023-12-20T05:39:13;35.25;;;16.73;;
45694;SDS011;31408;45.468;9.124;2023-12-20T05:41:39;31.77;;;18.38;;
45694;SDS011;31408;45.468;9.124;2023-12-20T05:44:04;33.60;;;17.95;;
45694;SDS011;31408;45.468;9.124;2023-12-20T05:46:29;31.58;;;16.88;;
45694;SDS011;31408;45.468;9.124;2023-12-20T05:48:55;33.10;;;16.58;;
45694;SDS011;31408;45.468;9.124;2023-12-20T05:51:20;30.38;;;14.93;;
45694;SDS011;31408;45.468;9.124;2023-12-20T05:53:45;29.75;;;15.35;;
45694;SDS011;31408;45.468;9.124;2023-12-20T05:56:11;37.42;;;18.75;;
45694;SDS011;31408;45.468;9.124;2023-12-20T05:58:36;25.00;;;14.73;;
45694;SDS011;31408;45.468;9.124;2023-12-20T06:01:05;39.97;;;17.38;;
45694;SDS011;31408;45.468;9.124;2023-12-20T06:03:30;30.88;;;16.00;;
45694;SDS011;31408;45.468;9.124;2023-12-20T06:05:55;29.05;;;15.88;;
45694;SDS011;31408;45.468;9.124;2023-12-20T06:08:21;33.50;;;16.50;;
45694;SDS011;31408;45.468;9.124;2023-12-20T06:10:46;31.33;;;14.63;;
45694;SDS011;31408;45.468;9.124;2023-12-20T06:13:12;28.33;;;15.57;;
45694;SDS011;31408;45.468;9.124;2023-12-20T06:15:38;30.08;;;16.80;;
45694;SDS011;31408;45.468;9.124;2023-12-20T06:18:05;33.60;;;16.70;;
45694;SDS011;31408;45.468;9.124;2023-12-20T06:20:30;29.75;;;16.98;;
45694;SDS011;31408;45.468;9.124;2023-12-20T06:22:55;33.30;;;16.25;;
45694;SDS011;31408;45.468;9.124;2023-12-20T06:25:21;28.55;;;15.85;;
45694;SDS011;31408;45.468;9.124;2023-12-20T06:27:46;27.88;;;17.05;;
45694;SDS011;31408;45.468;9.124;2023-12-20T06:30:12;30.20;;;15.35;;
45694;SDS011;31408;45.468;9.124;2023-12-20T06:32:37;28.05;;;14.80;;
45694;SDS011;31408;45.468;9.124;2023-12-20T06:35:04;31.33;;;16.35;;
45694;SDS011;31408;45.468;9.124;2023-12-20T06:37:30;33.33;;;16.13;;
45694;SDS011;31408;45.468;9.124;2023-12-20T06:39:55;28.70;;;15.10;;
45694;SDS011;31408;45.468;9.124;2023-12-20T06:42:22;26.92;;;14.93;;
45694;SDS011;31408;45.468;9.124;2023-12-20T06:44:47;29.40;;;16.35;;
45694;SDS011;31408;45.468;9.124;2023-12-20T06:47:12;29.85;;;15.80;;
45694;SDS011;31408;45.468;9.124;2023-12-20T06:49:39;30.60;;;15.05;;
45694;SDS011;31408;45.468;9.124;2023-12-20T06:52:04;33.38;;;16.15;;
45694;SDS011;31408;45.468;9.124;2023-12-20T06:54:30;31.98;;;17.20;;
45694;SDS011;31408;45.468;9.124;2023-12-20T06:56:55;29.48;;;13.63;;
45694;SDS011;31408;45.468;9.124;2023-12-20T06:59:20;34.63;;;15.48;;
45694;SDS011;31408;45.468;9.124;2023-12-20T07:01:49;28.05;;;15.65;;
45694;SDS011;31408;45.468;9.124;2023-12-20T07:04:15;32.70;;;16.10;;
45694;SDS011;31408;45.468;9.124;2023-12-20T07:06:40;27.92;;;14.25;;
45694;SDS011;31408;45.468;9.124;2023-12-20T07:09:05;32.17;;;16.73;;
45694;SDS011;31408;45.468;9.124;2023-12-20T07:11:31;29.42;;;15.35;;
45694;SDS011;31408;45.468;9.124;2023-12-20T07:13:57;36.28;;;15.82;;
45694;SDS011;31408;45.468;9.124;2023-12-20T07:16:22;28.23;;;16.15;;
45694;SDS011;31408;45.468;9.124;2023-12-20T07:18:47;29.77;;;15.18;;
45694;SDS011;31408;45.468;9.124;2023-12-20T07:21:13;31.15;;;16.58;;
45694;SDS011;31408;45.468;9.124;2023-12-20T07:23:38;29.27;;;15.95;;
45694;SDS011;31408;45.468;9.124;2023-12-20T07:26:03;27.52;;;14.55;;
45694;SDS011;31408;45.468;9.124;2023-12-20T07:28:29;30.17;;;15.90;;
45694;SDS011;31408;45.468;9.124;2023-12-20T07:30:55;30.02;;;16.75;;
45694;SDS011;31408;45.468;9.124;2023-12-20T07:33:20;29.58;;;14.70;;
45694;SDS011;31408;45.468;9.124;2023-12-20T07:35:45;28.38;;;15.50;;
45694;SDS011;31408;45.468;9.124;2023-12-20T07:38:11;32.70;;;16.25;;
45694;SDS011;31408;45.468;9.124;2023-12-20T07:40:37;26.40;;;14.73;;
45694;SDS011;31408;45.468;9.124;2023-12-20T07:43:03;28.63;;;14.75;;
45694;SDS011;31408;45.468;9.124;2023-12-20T07:45:28;29.40;;;15.35;;
45694;SDS011;31408;45.468;9.124;2023-12-20T07:47:53;29.95;;;16.08;;
45694;SDS011;31408;45.468;9.124;2023-12-20T07:50:19;27.10;;;14.95;;
45694;SDS011;31408;45.468;9.124;2023-12-20T07:52:44;30.48;;;15.25;;
45694;SDS011;31408;45.468;9.124;2023-12-20T07:55:10;27.92;;;15.70;;
45694;SDS011;31408;45.468;9.124;2023-12-20T07:57:35;31.75;;;16.33;;
45694;SDS011;31408;45.468;9.124;2023-12-20T08:00:01;34.15;;;16.23;;
45694;SDS011;31408;45.468;9.124;2023-12-20T08:02:29;33.38;;;14.40;;
45694;SDS011;31408;45.468;9.124;2023-12-20T08:04:55;30.50;;;15.07;;
45694;SDS011;31408;45.468;9.124;2023-12-20T08:07:20;30.13;;;14.82;;
45694;SDS011;31408;45.468;9.124;2023-12-20T08:09:45;31.50;;;15.57;;
45694;SDS011;31408;45.468;9.124;2023-12-20T08:12:11;33.65;;;17.77;;
45694;SDS011;31408;45.468;9.124;2023-12-20T08:14:36;48.78;;;20.67;;
45694;SDS011;31408;45.468;9.124;2023-12-20T08:17:02;32.72;;;17.98;;
45694;SDS011;31408;45.468;9.124;2023-12-20T08:19:27;38.25;;;18.10;;
45694;SDS011;31408;45.468;9.124;2023-12-20T08:21:53;31.40;;;15.52;;
45694;SDS011;31408;45.468;9.124;2023-12-20T08:24:18;30.13;;;16.45;;
45694;SDS011;31408;45.468;9.124;2023-12-20T08:26:43;32.42;;;16.17;;
45694;SDS011;31408;45.468;9.124;2023-12-20T08:29:09;30.63;;;17.10;;
45694;SDS011;31408;45.468;9.124;2023-12-20T08:31:34;30.70;;;15.38;;
45694;SDS011;31408;45.468;9.124;2023-12-20T08:33:59;33.13;;;16.85;;
45694;SDS011;31408;45.468;9.124;2023-12-20T08:36:25;34.45;;;15.18;;
45694;SDS011;31408;45.468;9.124;2023-12-20T08:38:50;29.60;;;15.55;;
45694;SDS011;31408;45.468;9.124;2023-12-20T08:41:16;32.30;;;17.15;;
45694;SDS011;31408;45.468;9.124;2023-12-20T08:43:42;35.20;;;16.38;;
45694;SDS011;31408;45.468;9.124;2023-12-20T08:46:08;30.90;;;17.27;;
45694;SDS011;31408;45.468;9.124;2023-12-20T08:48:34;31.17;;;17.52;;
45694;SDS011;31408;45.468;9.124;2023-12-20T08:51:00;30.95;;;16.73;;
45694;SDS011;31408;45.468;9.124;2023-12-20T08:53:25;29.23;;;15.52;;
45694;SDS011;31408;45.468;9.124;2023-12-20T08:55:50;28.75;;;16.10;;
45694;SDS011;31408;45.468;9.124;2023-12-20T08:58:16;33.22;;;17.63;;
45694;SDS011;31408;45.468;9.124;2023-12-20T09:00:42;33.22;;;19.58;;
45694;SDS011;31408;45.468;9.124;2023-12-20T09:03:07;34.25;;;17.83;;
45694;SDS011;31408;45.468;9.124;2023-12-20T09:05:33;30.45;;;18.45;;
45694;SDS011;31408;45.468;9.124;2023-12-20T09:07:58;34.00;;;18.50;;
45694;SDS011;31408;45.468;9.124;2023-12-20T09:10:23;34.72;;;21.85;;
45694;SDS011;31408;45.468;9.124;2023-12-20T09:12:49;36.17;;;18.48;;
45694;SDS011;31408;45.468;9.124;2023-12-20T09:15:15;34.22;;;19.88;;
45694;SDS011;31408;45.468;9.124;2023-12-20T09:17:40;33.53;;;20.42;;
45694;SDS011;31408;45.468;9.124;2023-12-20T09:20:06;36.83;;;21.92;;
45694;SDS011;31408;45.468;9.124;2023-12-20T09:22:33;35.95;;;21.70;;
45694;SDS011;31408;45.468;9.124;2023-12-20T09:24:58;40.88;;;23.20;;
45694;SDS011;31408;45.468;9.124;2023-12-20T09:27:24;35.38;;;22.23;;
45694;SDS011;31408;45.468;9.124;2023-12-20T09:29:49;40.53;;;22.00;;
45694;SDS011;31408;45.468;9.124;2023-12-20T09:32:15;36.28;;;21.83;;
45694;SDS011;31408;45.468;9.124;2023-12-20T09:34:40;34.35;;;22.75;;
45694;SDS011;31408;45.468;9.124;2023-12-20T09:37:07;34.05;;;23.20;;
45694;SDS011;31408;45.468;9.124;2023-12-20T09:39:33;37.83;;;23.48;;
45694;SDS011;31408;45.468;9.124;2023-12-20T09:42:04;37.17;;;21.65;;
45694;SDS011;31408;45.468;9.124;2023-12-20T09:44:30;35.92;;;22.42;;
45694;SDS011;31408;45.468;9.124;2023-12-20T09:46:56;37.72;;;20.88;;
45694;SDS011;31408;45.468;9.124;2023-12-20T09:49:21;34.75;;;18.63;;
45694;SDS011;31408;45.468;9.124;2023-12-20T09:51:47;34.50;;;19.83;;
45694;SDS011;31408;45.468;9.124;2023-12-20T09:54:19;33.03;;;19.60;;
45694;SDS011;31408;45.468;9.124;2023-12-20T09:56:45;34.17;;;18.95;;
45694;SDS011;31408;45.468;9.124;2023-12-20T09:59:11;32.83;;;18.88;;
45694;SDS011;31408;45.468;9.124;2023-12-20T10:01:36;39.53;;;21.10;;
45694;SDS011;31408;45.468;9.124;2023-12-20T10:04:05;33.20;;;18.17;;
45694;SDS011;31408;45.468;9.124;2023-12-20T10:06:34;26.10;;;17.30;;
45694;SDS011;31408;45.468;9.124;2023-12-20T10:08:59;32.95;;;17.48;;
45694;SDS011;31408;45.468;9.124;2023-12-20T10:11:24;29.40;;;19.38;;
45694;SDS011;31408;45.468;9.124;2023-12-20T10:13:50;30.63;;;18.95;;
45694;SDS011;31408;45.468;9.124;2023-12-20T10:16:15;36.80;;;20.35;;
45694;SDS011;31408;45.468;9.124;2023-12-20T10:18:41;35.72;;;17.85;;
45694;SDS011;31408;45.468;9.124;2023-12-20T10:21:06;36.17;;;18.60;;
45694;SDS011;31408;45.468;9.124;2023-12-20T10:23:35;32.38;;;18.88;;
45694;SDS011;31408;45.468;9.124;2023-12-20T10:26:00;32.75;;;19.67;;
45694;SDS011;31408;45.468;9.124;2023-12-20T10:28:26;33.38;;;19.80;;
45694;SDS011;31408;45.468;9.124;2023-12-20T10:30:54;38.20;;;20.95;;
45694;SDS011;31408;45.468;9.124;2023-12-20T10:33:26;35.92;;;18.80;;
45694;SDS011;31408;45.468;9.124;2023-12-20T10:35:52;32.47;;;18.38;;
45694;SDS011;31408;45.468;9.124;2023-12-20T10:38:17;31.65;;;18.58;;
45694;SDS011;31408;45.468;9.124;2023-12-20T10:40:43;31.60;;;17.38;;
45694;SDS011;31408;45.468;9.124;2023-12-20T10:43:10;33.50;;;18.40;;
45694;SDS011;31408;45.468;9.124;2023-12-20T10:45:35;31.50;;;19.38;;
45694;SDS011;31408;45.468;9.124;2023-12-20T10:48:01;30.10;;;17.40;;
45694;SDS011;31408;45.468;9.124;2023-12-20T10:50:27;35.17;;;18.17;;
45694;SDS011;31408;45.468;9.124;2023-12-20T10:52:54;35.78;;;18.45;;
45694;SDS011;31408;45.468;9.124;2023-12-20T10:55:21;29.02;;;17.67;;
45694;SDS011;31408;45.468;9.124;2023-12-20T10:57:46;27.58;;;17.33;;
45694;SDS011;31408;45.468;9.124;2023-12-20T11:00:16;31.60;;;17.92;;
45694;SDS011;31408;45.468;9.124;2023-12-20T11:02:42;29.50;;;15.77;;
45694;SDS011;31408;45.468;9.124;2023-12-20T11:05:31;32.42;;;16.83;;
45694;SDS011;31408;45.468;9.124;2023-12-20T11:13:12;32.30;;;17.15;;
45694;SDS011;31408;45.468;9.124;2023-12-20T11:15:42;28.70;;;16.38;;
45694;SDS011;31408;45.468;9.124;2023-12-20T11:18:07;27.50;;;15.73;;
45694;SDS011;31408;45.468;9.124;2023-12-20T11:20:37;28.13;;;14.85;;
45694;SDS011;31408;45.468;9.124;2023-12-20T11:23:03;31.50;;;15.63;;
45694;SDS011;31408;45.468;9.124;2023-12-20T11:25:29;30.30;;;16.42;;
45694;SDS011;31408;45.468;9.124;2023-12-20T11:28:08;27.27;;;15.93;;
45694;SDS011;31408;45.468;9.124;2023-12-20T11:30:56;34.35;;;15.70;;
45694;SDS011;31408;45.468;9.124;2023-12-20T11:33:29;26.70;;;15.07;;
45694;SDS011;31408;45.468;9.124;2023-12-20T11:35:55;32.47;;;16.52;;
45694;SDS011;31408;45.468;9.124;2023-12-20T11:38:21;29.77;;;16.00;;
45694;SDS011;31408;45.468;9.124;2023-12-20T11:40:48;26.70;;;14.35;;
45694;SDS011;31408;45.468;9.124;2023-12-20T11:43:13;32.05;;;16.55;;
45694;SDS011;31408;45.468;9.124;2023-12-20T11:45:54;29.35;;;15.73;;
45694;SDS011;31408;45.468;9.124;2023-12-20T11:48:19;31.67;;;16.63;;
45694;SDS011;31408;45.468;9.124;2023-12-20T11:50:45;27.30;;;16.13;;
45694;SDS011;31408;45.468;9.124;2023-12-20T11:53:10;28.88;;;15.30;;
45694;SDS011;31408;45.468;9.124;2023-12-20T11:55:35;33.33;;;18.05;;
45694;SDS011;31408;45.468;9.124;2023-12-20T11:58:01;27.38;;;16.33;;
45694;SDS011;31408;45.468;9.124;2023-12-20T12:00:27;29.15;;;16.85;;
45694;SDS011;31408;45.468;9.124;2023-12-20T12:02:56;31.55;;;20.17;;
45694;SDS011;31408;45.468;9.124;2023-12-20T12:05:21;31.02;;;17.92;;
45694;SDS011;31408;45.468;9.124;2023-12-20T12:07:47;31.58;;;18.02;;
45694;SDS011;31408;45.468;9.124;2023-12-20T12:10:12;29.25;;;17.10;;
45694;SDS011;31408;45.468;9.124;2023-12-20T12:12:38;33.53;;;18.13;;
45694;SDS011;31408;45.468;9.124;2023-12-20T12:15:04;29.55;;;17.50;;
45694;SDS011;31408;45.468;9.124;2023-12-20T12:17:29;34.50;;;19.30;;
45694;SDS011;31408;45.468;9.124;2023-12-20T12:20:04;30.45;;;17.52;;
45694;SDS011;31408;45.468;9.124;2023-12-20T12:22:30;28.40;;;16.02;;
45694;SDS011;31408;45.468;9.124;2023-12-20T12:24:58;29.50;;;18.30;;
45694;SDS011;31408;45.468;9.124;2023-12-20T12:27:24;30.90;;;16.45;;
45694;SDS011;31408;45.468;9.124;2023-12-20T12:30:02;30.95;;;17.33;;
45694;SDS011;31408;45.468;9.124;2023-12-20T12:32:28;30.48;;;16.98;;
45694;SDS011;31408;45.468;9.124;2023-12-20T12:34:54;27.48;;;15.73;;
45694;SDS011;31408;45.468;9.124;2023-12-20T12:37:19;30.33;;;17.83;;
45694;SDS011;31408;45.468;9.124;2023-12-20T12:39:46;32.30;;;17.95;;
45694;SDS011;31408;45.468;9.124;2023-12-20T12:42:11;29.33;;;16.90;;
45694;SDS011;31408;45.468;9.124;2023-12-20T12:44:37;33.45;;;17.25;;
45694;SDS011;31408;45.468;9.124;2023-12-20T12:47:02;28.23;;;17.00;;
45694;SDS011;31408;45.468;9.124;2023-12-20T12:49:28;34.00;;;17.67;;
45694;SDS011;31408;45.468;9.124;2023-12-20T12:51:53;33.20;;;18.77;;
45694;SDS011;31408;45.468;9.124;2023-12-20T12:54:21;29.80;;;17.83;;
45694;SDS011;31408;45.468;9.124;2023-12-20T12:56:46;32.45;;;20.77;;
45694;SDS011;31408;45.468;9.124;2023-12-20T12:59:12;35.53;;;19.48;;
45694;SDS011;31408;45.468;9.124;2023-12-20T13:01:38;32.53;;;19.20;;
45694;SDS011;31408;45.468;9.124;2023-12-20T13:04:04;34.08;;;19.25;;
45694;SDS011;31408;45.468;9.124;2023-12-20T13:06:32;36.90;;;20.13;;
45694;SDS011;31408;45.468;9.124;2023-12-20T13:08:57;35.15;;;20.42;;
45694;SDS011;31408;45.468;9.124;2023-12-20T13:11:23;30.85;;;19.63;;
45694;SDS011;31408;45.468;9.124;2023-12-20T13:13:48;36.38;;;22.23;;
45694;SDS011;31408;45.468;9.124;2023-12-20T13:16:13;35.83;;;22.70;;
45694;SDS011;31408;45.468;9.124;2023-12-20T13:18:39;33.17;;;18.90;;
45694;SDS011;31408;45.468;9.124;2023-12-20T13:21:07;31.40;;;18.90;;
45694;SDS011;31408;45.468;9.124;2023-12-20T13:23:33;30.77;;;19.77;;
45694;SDS011;31408;45.468;9.124;2023-12-20T13:25:58;38.33;;;21.50;;
45694;SDS011;31408;45.468;9.124;2023-12-20T13:28:23;32.00;;;20.35;;
45694;SDS011;31408;45.468;9.124;2023-12-20T13:30:49;37.08;;;21.48;;
45694;SDS011;31408;45.468;9.124;2023-12-20T13:33:14;43.15;;;21.88;;
45694;SDS011;31408;45.468;9.124;2023-12-20T13:35:39;29.80;;;19.05;;
45694;SDS011;31408;45.468;9.124;2023-12-20T13:38:05;37.40;;;20.63;;
45694;SDS011;31408;45.468;9.124;2023-12-20T13:40:30;35.55;;;20.58;;
45694;SDS011;31408;45.468;9.124;2023-12-20T13:42:55;32.72;;;19.02;;
45694;SDS011;31408;45.468;9.124;2023-12-20T13:45:21;38.35;;;19.90;;
45694;SDS011;31408;45.468;9.124;2023-12-20T13:47:46;32.72;;;19.83;;
45694;SDS011;31408;45.468;9.124;2023-12-20T13:50:11;36.78;;;20.80;;
45694;SDS011;31408;45.468;9.124;2023-12-20T13:52:37;38.08;;;20.80;;
45694;SDS011;31408;45.468;9.124;2023-12-20T13:55:03;37.83;;;19.52;;
45694;SDS011;31408;45.468;9.124;2023-12-20T13:57:30;35.15;;;20.52;;
45694;SDS011;31408;45.468;9.124;2023-12-20T13:59:55;33.97;;;19.48;;
45694;SDS011;31408;45.468;9.124;2023-12-20T14:02:24;38.33;;;21.75;;
45694;SDS011;31408;45.468;9.124;2023-12-20T14:04:49;35.95;;;19.70;;
45694;SDS011;31408;45.468;9.124;2023-12-20T14:07:15;32.58;;;19.63;;
45694;SDS011;31408;45.468;9.124;2023-12-20T14:09:40;30.52;;;18.67;;
45694;SDS011;31408;45.468;9.124;2023-12-20T14:12:10;30.95;;;19.83;;
45694;SDS011;31408;45.468;9.124;2023-12-20T14:14:36;34.45;;;20.98;;
45694;SDS011;31408;45.468;9.124;2023-12-20T14:17:01;39.97;;;20.92;;
45694;SDS011;31408;45.468;9.124;2023-12-20T14:19:26;30.88;;;18.08;;